Time;durP1;ratioP1;P1;durP2;ratioP2;P2;SDS_P1;SDS_P2;PMS_P1;PMS_P2;Temp;Humidity;BMP_temperature;BMP_pressure;BME280_temperature;BME280_humidity;BME280_pressure;Samples;Min_cycle;Max_cycle;Signal;HPM_P1;HPM_P2
2021/09/29 00:01:35;;;;;;;20.62;8.10;;;;;;;6.40;100.00;100707.88;1741840;81;20972;-73
2021/09/29 00:04:04;;;;;;;24.40;8.98;;;;;;;6.36;100.00;100704.57;1722112;82;20888;-73
2021/09/29 00:06:30;;;;;;;28.83;8.63;;;;;;;6.31;100.00;100711.37;1738668;81;20968;-73
2021/09/29 00:08:57;;;;;;;22.70;8.08;;;;;;;6.27;100.00;100711.06;1737179;81;20984;-72
2021/09/29 00:11:23;;;;;;;22.35;8.25;;;;;;;6.23;100.00;100710.77;1733136;81;20994;-72
2021/09/29 00:13:50;;;;;;;17.73;8.13;;;;;;;6.19;100.00;100712.91;1721869;82;20955;-73
2021/09/29 00:16:16;;;;;;;15.32;8.18;;;;;;;6.14;100.00;100718.30;1722129;82;20904;-72
2021/09/29 00:18:43;;;;;;;18.23;8.08;;;;;;;6.10;100.00;100715.81;1722070;83;20864;-73
2021/09/29 00:21:10;;;;;;;21.40;9.18;;;;;;;6.07;100.00;100717.14;1722313;83;20992;-73
2021/09/29 00:23:37;;;;;;;20.27;7.53;;;;;;;6.07;100.00;100719.05;1728288;81;21207;-72
2021/09/29 00:26:04;;;;;;;17.87;8.53;;;;;;;6.04;100.00;100721.75;1722289;83;20877;-73
2021/09/29 00:28:30;;;;;;;19.42;9.13;;;;;;;6.03;100.00;100720.64;1732084;81;21490;-73
2021/09/29 00:31:12;;;;;;;27.80;8.50;;;;;;;6.02;100.00;100720.36;1721907;83;20936;-73
2021/09/29 00:33:25;;;;;;;23.12;8.25;;;;;;;6.04;100.00;100718.20;1719702;82;21533;-72
2021/09/29 00:35:52;;;;;;;14.15;8.23;;;;;;;6.06;100.00;100718.77;1724107;81;21424;-73
2021/09/29 00:38:19;;;;;;;19.20;8.38;;;;;;;6.08;100.00;100715.24;1724188;81;20982;-72
2021/09/29 00:40:45;;;;;;;17.12;8.43;;;;;;;6.09;100.00;100716.89;1746736;81;21542;-73
2021/09/29 00:43:12;;;;;;;19.60;8.30;;;;;;;6.10;100.00;100715.81;1738887;81;20978;-73
2021/09/29 00:45:38;;;;;;;22.60;8.65;;;;;;;6.12;100.00;100709.02;1730216;81;20928;-73
2021/09/29 00:48:05;;;;;;;16.05;7.65;;;;;;;6.16;100.00;100716.14;1732072;81;21527;-73
2021/09/29 00:50:31;;;;;;;18.30;7.08;;;;;;;6.19;100.00;100713.72;1721992;83;20881;-73
2021/09/29 00:52:58;;;;;;;19.48;8.60;;;;;;;6.19;100.00;100716.45;1722039;83;20955;-73
2021/09/29 00:55:25;;;;;;;22.60;8.18;;;;;;;6.20;100.00;100712.64;1724302;81;20982;-73
2021/09/29 00:57:52;;;;;;;15.93;8.03;;;;;;;6.21;100.00;100717.55;1722530;83;20924;-73
2021/09/29 01:00:19;;;;;;;19.48;7.50;;;;;;;6.20;100.00;100715.91;1722185;83;22045;-73
2021/09/29 01:02:46;;;;;;;15.28;7.37;;;;;;;6.21;100.00;100718.92;1722272;83;21621;-73
2021/09/29 01:05:13;;;;;;;19.37;8.20;;;;;;;6.19;100.00;100719.17;1722153;82;21555;-73
2021/09/29 01:08:09;;;;;;;19.82;8.13;;;;;;;6.21;100.00;100724.38;1722381;82;20936;-73
2021/09/29 01:10:47;;;;;;;19.48;8.08;;;;;;;6.22;100.00;100722.75;1722295;83;20979;-73
2021/09/29 01:13:31;;;;;;;16.50;7.62;;;;;;;6.24;100.00;100722.49;1729984;81;21081;-73
2021/09/29 01:16:02;;;;;;;27.40;8.05;;;;;;;6.28;100.00;100724.98;1721562;81;20979;-73
2021/09/29 01:18:31;;;;;;;14.95;8.00;;;;;;;6.30;100.00;100720.09;1726806;81;21498;-72
2021/09/29 01:21:05;;;;;;;21.85;7.75;;;;;;;6.32;100.00;100719.30;1730392;81;20939;-72
2021/09/29 01:24:13;;;;;;;17.05;6.97;;;;;;;6.33;100.00;100725.58;1757308;81;20904;-73
2021/09/29 01:26:41;;;;;;;15.60;7.53;;;;;;;6.34;100.00;100719.86;1724638;81;20884;-73
2021/09/29 01:29:14;;;;;;;14.93;7.92;;;;;;;6.34;100.00;100723.12;1750804;81;21473;-73
2021/09/29 01:31:41;;;;;;;16.35;7.50;;;;;;;6.31;100.00;100723.11;1729620;81;21515;-72
2021/09/29 01:34:09;;;;;;;18.57;9.15;;;;;;;6.29;100.00;100723.91;1709336;82;21000;-72
2021/09/29 01:36:36;;;;;;;13.05;7.97;;;;;;;6.27;100.00;100725.53;1735017;81;21039;-73
2021/09/29 01:39:07;;;;;;;22.13;8.28;;;;;;;6.27;100.00;100726.06;1722333;82;21419;-73
2021/09/29 01:41:32;;;;;;;18.92;8.15;;;;;;;6.25;100.00;100728.23;1730355;81;20924;-72
2021/09/29 01:44:00;;;;;;;21.80;9.15;;;;;;;6.25;100.00;100725.50;1732603;81;20884;-72
2021/09/29 01:46:28;;;;;;;25.08;10.23;;;;;;;6.26;100.00;100725.78;1730270;81;20901;-73
2021/09/29 01:49:19;;;;;;;17.57;9.25;;;;;;;6.31;100.00;100727.20;1744197;81;20932;-73
2021/09/29 01:51:49;;;;;;;20.25;9.48;;;;;;;6.39;100.00;100726.69;1685491;81;21993;-71
2021/09/29 01:54:17;;;;;;;18.98;10.00;;;;;;;6.51;100.00;100729.25;1749304;81;21537;-71
2021/09/29 01:56:45;;;;;;;20.95;10.60;;;;;;;6.60;100.00;100729.88;1731790;81;20947;-71
2021/09/29 01:59:12;;;;;;;23.57;11.30;;;;;;;6.69;100.00;100728.86;1751806;81;20864;-72
2021/09/29 02:01:39;;;;;;;23.32;11.63;;;;;;;6.78;100.00;100727.83;1714991;82;21565;-72
2021/09/29 02:04:09;;;;;;;30.60;14.07;;;;;;;6.85;100.00;100724.34;1723648;82;21591;-72
2021/09/29 02:06:53;;;;;;;28.60;13.15;;;;;;;6.93;100.00;100729.30;1722118;83;21445;-72
2021/09/29 02:09:20;;;;;;;24.05;12.82;;;;;;;6.99;100.00;100733.69;1710868;82;20931;-72
2021/09/29 02:11:48;;;;;;;27.45;13.95;;;;;;;7.06;100.00;100730.72;1722140;82;20932;-72
2021/09/29 02:14:17;;;;;;;31.10;15.10;;;;;;;7.11;100.00;100737.59;1722136;83;20930;-71
2021/09/29 02:16:45;;;;;;;29.27;15.25;;;;;;;7.15;100.00;100735.97;1722255;82;23107;-71
2021/09/29 02:19:13;;;;;;;21.57;13.38;;;;;;;7.20;100.00;100730.00;1722150;82;20885;-71
2021/09/29 02:21:41;;;;;;;29.72;14.85;;;;;;;7.25;100.00;100735.48;1736682;81;20895;-71
2021/09/29 02:24:08;;;;;;;24.95;14.95;;;;;;;7.29;100.00;100738.52;1742303;81;21530;-71
2021/09/29 02:26:35;;;;;;;28.70;14.95;;;;;;;7.33;100.00;100736.08;1751959;81;20975;-71
2021/09/29 02:29:03;;;;;;;27.73;15.50;;;;;;;7.38;100.00;100737.47;1722963;81;21122;-71
2021/09/29 02:31:29;;;;;;;27.25;15.30;;;;;;;7.41;100.00;100745.13;1722085;82;20971;-71
2021/09/29 02:33:56;;;;;;;26.68;15.53;;;;;;;7.43;100.00;100739.69;1722046;82;21464;-71
2021/09/29 02:36:22;;;;;;;27.37;15.00;;;;;;;7.46;100.00;100732.86;1724665;82;20929;-72
2021/09/29 02:38:51;;;;;;;26.93;15.55;;;;;;;7.47;100.00;100733.97;1719266;82;20913;-72
2021/09/29 02:41:19;;;;;;;30.43;15.45;;;;;;;7.49;100.00;100737.25;1724366;82;22148;-73
2021/09/29 02:43:47;;;;;;;25.85;16.00;;;;;;;7.52;100.00;100738.05;1717678;82;20907;-72
2021/09/29 02:46:14;;;;;;;27.65;15.65;;;;;;;7.54;100.00;100741.34;1711754;83;20883;-71
2021/09/29 02:48:40;;;;;;;26.80;16.57;;;;;;;7.56;100.00;100742.45;1720722;82;20982;-71
2021/09/29 02:51:07;;;;;;;26.27;16.55;;;;;;;7.57;100.00;100744.09;1716581;82;21509;-72
2021/09/29 02:53:34;;;;;;;28.65;16.17;;;;;;;7.57;100.00;100742.72;1652953;85;21568;-72
2021/09/29 02:56:03;;;;;;;24.72;15.55;;;;;;;7.58;100.00;100745.73;1719490;82;20859;-72
2021/09/29 02:58:29;;;;;;;24.75;16.27;;;;;;;7.59;100.00;100754.20;1726901;82;20969;-72
2021/09/29 03:00:59;;;;;;;34.85;18.55;;;;;;;7.58;100.00;100757.48;1715602;82;20934;-72
2021/09/29 03:03:27;;;;;;;26.80;16.73;;;;;;;7.57;100.00;100757.20;1718726;82;21022;-72
2021/09/29 03:05:54;;;;;;;27.87;17.73;;;;;;;7.57;100.00;100753.11;1725046;82;21532;-71
2021/09/29 03:08:20;;;;;;;25.15;15.53;;;;;;;7.58;100.00;100759.39;1722759;82;21430;-72
2021/09/29 03:10:49;;;;;;;26.82;15.30;;;;;;;7.58;100.00;100756.66;1727851;82;21623;-71
2021/09/29 03:13:16;;;;;;;22.27;15.45;;;;;;;7.59;100.00;100761.05;1705559;82;21496;-72
2021/09/29 03:15:43;;;;;;;22.93;15.98;;;;;;;7.59;100.00;100755.58;1731250;82;21493;-71
2021/09/29 03:18:09;;;;;;;28.25;16.25;;;;;;;7.60;100.00;100759.41;1724992;81;21097;-71
2021/09/29 03:20:36;;;;;;;26.20;16.75;;;;;;;7.62;100.00;100757.78;1738146;81;21621;-73
2021/09/29 03:23:03;;;;;;;22.65;15.23;;;;;;;7.64;100.00;100762.43;1738592;81;21439;-75
2021/09/29 03:25:31;;;;;;;26.75;16.90;;;;;;;7.67;100.00;100767.91;1717617;81;20884;-75
2021/09/29 03:27:58;;;;;;;21.35;15.80;;;;;;;7.67;100.00;100766.00;1719914;82;20915;-74
2021/09/29 03:30:25;;;;;;;22.60;15.60;;;;;;;7.65;100.00;100764.08;1720095;82;21142;-75
2021/09/29 03:32:52;;;;;;;23.20;15.93;;;;;;;7.67;100.00;100765.17;1719514;82;20951;-74
2021/09/29 03:35:19;;;;;;;26.37;15.43;;;;;;;7.66;100.00;100772.55;1718067;82;20981;-74
2021/09/29 03:37:46;;;;;;;23.47;16.62;;;;;;;7.68;100.00;100772.28;1725395;82;21021;-74
2021/09/29 03:40:14;;;;;;;20.90;15.95;;;;;;;7.69;100.00;100772.02;1713832;82;20902;-73
2021/09/29 03:42:42;;;;;;;24.90;15.75;;;;;;;7.70;100.00;100777.77;1713376;82;21121;-75
2021/09/29 03:45:10;;;;;;;27.07;16.40;;;;;;;7.69;100.00;100782.13;1714919;82;20949;-73
2021/09/29 03:47:41;;;;;;;21.90;16.02;;;;;;;7.68;100.00;100783.22;1720798;82;20950;-73
2021/09/29 03:50:08;;;;;;;22.10;16.48;;;;;;;7.69;100.00;100784.86;1681449;84;21670;-74
2021/09/29 03:52:34;;;;;;;25.50;14.93;;;;;;;7.68;100.00;100776.39;1718268;82;20954;-73
2021/09/29 03:55:01;;;;;;;25.32;16.23;;;;;;;7.69;100.00;100782.95;1718329;83;21051;-74
2021/09/29 03:57:28;;;;;;;21.68;15.90;;;;;;;7.69;100.00;100788.42;1710301;82;20999;-74
2021/09/29 03:59:54;;;;;;;22.27;15.98;;;;;;;7.70;100.00;100785.14;1719032;82;21047;-74
2021/09/29 04:02:21;;;;;;;23.55;15.50;;;;;;;7.69;100.00;100787.05;1709956;82;21620;-75
2021/09/29 04:04:49;;;;;;;24.07;15.55;;;;;;;7.66;100.00;100790.86;1721908;80;20987;-74
2021/09/29 04:07:15;;;;;;;23.57;16.23;;;;;;;7.63;100.00;100791.67;1731280;81;21153;-75
2021/09/29 04:09:42;;;;;;;25.20;16.10;;;;;;;7.62;100.00;100793.30;1722638;81;20931;-74
2021/09/29 04:12:10;;;;;;;25.92;15.65;;;;;;;7.62;100.00;100794.13;1694864;82;21095;-74
2021/09/29 04:14:37;;;;;;;26.33;16.90;;;;;;;7.63;100.00;100797.68;1710273;81;20936;-73
2021/09/29 04:17:04;;;;;;;24.80;17.23;;;;;;;7.59;100.00;100794.66;1720534;82;20971;-72
2021/09/29 04:19:30;;;;;;;30.75;17.62;;;;;;;7.58;100.00;100799.02;1683205;83;21496;-72
2021/09/29 04:21:57;;;;;;;24.57;17.23;;;;;;;7.56;100.00;100802.02;1751880;81;20939;-72
2021/09/29 04:24:23;;;;;;;23.55;16.20;;;;;;;7.55;100.00;100806.37;1732759;81;21497;-72
2021/09/29 04:26:50;;;;;;;30.55;17.27;;;;;;;7.54;100.00;100813.76;1722719;81;20976;-72
2021/09/29 04:29:17;;;;;;;29.30;18.55;;;;;;;7.52;100.00;100810.47;1723507;81;21547;-72
2021/09/29 04:31:43;;;;;;;25.12;18.10;;;;;;;7.55;100.00;100811.84;1725123;81;21479;-73
2021/09/29 04:34:10;;;;;;;32.75;18.48;;;;;;;7.55;100.00;100809.94;1721511;81;21003;-72
2021/09/29 04:36:37;;;;;;;28.80;18.67;;;;;;;7.56;100.00;100816.23;1718326;81;21090;-72
2021/09/29 04:39:04;;;;;;;33.98;19.77;;;;;;;7.56;100.00;100819.78;1722221;81;20977;-72
2021/09/29 04:41:31;;;;;;;33.08;18.73;;;;;;;7.57;100.00;100824.16;1722782;82;20885;-74
2021/09/29 04:43:57;;;;;;;30.27;18.73;;;;;;;7.57;100.00;100819.23;1728568;81;21119;-72
2021/09/29 04:46:24;;;;;;;29.40;18.10;;;;;;;7.57;100.00;100820.60;1727667;81;20860;-73
2021/09/29 04:48:50;;;;;;;26.37;17.95;;;;;;;7.57;100.00;100826.07;1699850;83;21454;-73
2021/09/29 04:51:17;;;;;;;33.25;19.50;;;;;;;7.56;100.00;100826.61;1644921;84;21047;-73
2021/09/29 04:53:43;;;;;;;30.43;17.87;;;;;;;7.55;100.00;100830.98;1671853;84;20994;-73
2021/09/29 04:56:11;;;;;;;30.32;18.07;;;;;;;7.54;100.00;100827.97;1669597;84;21102;-74
2021/09/29 04:58:38;;;;;;;27.52;18.10;;;;;;;7.57;100.00;100823.34;1665551;84;20973;-74
2021/09/29 05:01:04;;;;;;;26.23;18.60;;;;;;;7.59;100.00;100834.83;1678225;84;20894;-72
2021/09/29 05:03:33;;;;;;;29.70;18.57;;;;;;;7.61;100.00;100832.65;1700404;83;21440;-73
2021/09/29 05:05:59;;;;;;;39.38;19.17;;;;;;;7.63;100.00;100840.05;1724636;82;20983;-71
2021/09/29 05:08:28;;;;;;;33.65;18.42;;;;;;;7.62;100.00;100832.93;1730356;81;21102;-71
2021/09/29 05:11:08;;;;;;;29.75;17.37;;;;;;;7.61;100.00;100842.22;1720912;81;20955;-72
2021/09/29 05:13:36;;;;;;;31.93;17.55;;;;;;;7.61;100.00;100840.84;1722988;81;20872;-68
2021/09/29 05:16:03;;;;;;;27.60;16.57;;;;;;;7.56;100.00;100840.81;1717717;81;20992;-74
2021/09/29 05:18:32;;;;;;;31.40;18.60;;;;;;;7.51;100.00;100847.66;1716175;82;20938;-73
2021/09/29 05:20:58;;;;;;;25.45;16.35;;;;;;;7.48;100.00;100848.17;1687438;84;21494;-73
2021/09/29 05:23:24;;;;;;;26.45;17.10;;;;;;;7.47;100.00;100852.00;1693555;84;20887;-73
2021/09/29 05:25:51;;;;;;;25.57;14.98;;;;;;;7.44;100.00;100851.16;1692516;84;21513;-73
2021/09/29 05:28:27;;;;;;;25.40;16.75;;;;;;;7.41;100.00;100853.05;1703303;83;20941;-73
2021/09/29 05:30:55;;;;;;;28.27;17.87;;;;;;;7.40;100.00;100854.95;1648380;86;20904;-73
2021/09/29 05:33:21;;;;;;;25.35;17.05;;;;;;;7.41;100.00;100859.88;1634976;86;21807;-74
2021/09/29 05:35:48;;;;;;;27.50;17.82;;;;;;;7.46;100.00;100858.55;1637850;87;21587;-73
2021/09/29 05:38:14;;;;;;;23.90;16.40;;;;;;;7.53;100.00;100863.20;1741225;81;20982;-73
2021/09/29 05:40:41;;;;;;;26.42;16.62;;;;;;;7.58;100.00;100861.33;1683796;83;21484;-73
2021/09/29 05:43:08;;;;;;;24.43;17.02;;;;;;;7.61;100.00;100862.17;1664990;83;21011;-72
2021/09/29 05:45:34;;;;;;;29.82;16.93;;;;;;;7.63;100.00;100863.27;1657950;85;21532;-69
2021/09/29 05:48:01;;;;;;;29.50;16.52;;;;;;;7.63;100.00;100861.36;1672380;84;20962;-71
2021/09/29 05:50:27;;;;;;;27.27;16.90;;;;;;;7.65;100.00;100866.56;1696471;83;20990;-69
2021/09/29 05:52:54;;;;;;;25.12;16.95;;;;;;;7.68;100.00;100864.67;1724690;82;21018;-72
2021/09/29 05:55:20;;;;;;;31.55;18.02;;;;;;;7.71;100.00;100864.14;1725462;82;20935;-70
2021/09/29 05:57:47;;;;;;;22.05;15.30;;;;;;;7.74;100.00;100862.79;1721211;82;21151;-71
2021/09/29 06:00:14;;;;;;;28.60;17.57;;;;;;;7.76;100.00;100859.25;1693588;83;20894;-73
2021/09/29 06:02:43;;;;;;;32.13;18.20;;;;;;;7.79;100.00;100858.17;1682871;83;20907;-76
2021/09/29 06:05:09;;;;;;;27.00;14.87;;;;;;;7.81;100.00;100865.56;1691111;84;21502;-74
2021/09/29 06:07:37;;;;;;;21.77;15.28;;;;;;;7.84;100.00;100869.14;1655020;85;21585;-76
2021/09/29 06:10:05;;;;;;;24.35;16.05;;;;;;;7.88;100.00;100866.70;1633966;86;21542;-75
2021/09/29 06:12:32;;;;;;;25.85;17.17;;;;;;;7.91;100.00;100865.62;1704735;83;21430;-74
2021/09/29 06:14:59;;;;;;;28.07;17.42;;;;;;;7.93;100.00;100871.64;1675074;84;21009;-75
2021/09/29 06:17:52;;;;;;;24.25;16.62;;;;;;;7.94;100.00;100871.10;1704614;83;20927;-75
2021/09/29 06:19:57;;;;;;;30.45;17.17;;;;;;;7.93;100.00;100874.92;1704747;83;20929;-74
2021/09/29 06:22:24;;;;;;;28.42;18.70;;;;;;;7.92;100.00;100881.48;1720020;83;21507;-77
2021/09/29 06:24:52;;;;;;;22.82;16.10;;;;;;;7.93;100.00;100882.58;1706486;83;20861;-75
2021/09/29 06:27:18;;;;;;;22.17;16.32;;;;;;;7.97;100.00;100880.69;1667954;85;21503;-76
2021/09/29 06:29:45;;;;;;;28.83;16.73;;;;;;;8.00;100.00;100883.71;1680145;84;20969;-75
2021/09/29 06:32:12;;;;;;;25.77;14.40;;;;;;;8.07;100.00;100887.58;1695360;84;21090;-74
2021/09/29 06:34:38;;;;;;;25.70;17.10;;;;;;;8.13;100.00;100889.21;1683535;84;21508;-75
2021/09/29 06:37:05;;;;;;;28.80;17.87;;;;;;;8.17;100.00;100884.85;1695967;84;20984;-75
2021/09/29 06:39:32;;;;;;;25.52;16.20;;;;;;;8.20;100.00;100884.32;1669569;84;21107;-75
2021/09/29 06:41:58;;;;;;;28.47;16.80;;;;;;;8.22;100.00;100885.70;1660345;85;20985;-74
2021/09/29 06:44:26;;;;;;;26.97;16.70;;;;;;;8.25;100.00;100882.42;1660338;85;21017;-74
2021/09/29 06:46:53;;;;;;;27.13;17.50;;;;;;;8.33;100.00;100881.13;1665437;84;22217;-74
2021/09/29 06:49:19;;;;;;;26.90;17.90;;;;;;;8.39;100.00;100880.05;1671902;84;20958;-75
2021/09/29 06:51:46;;;;;;;24.87;16.48;;;;;;;8.44;100.00;100884.72;1671836;84;20966;-74
2021/09/29 06:54:13;;;;;;;28.07;15.32;;;;;;;8.47;100.00;100883.63;1669984;84;20973;-74
2021/09/29 06:56:40;;;;;;;29.92;17.15;;;;;;;8.55;100.00;100886.39;1678986;83;21009;-75
2021/09/29 06:59:06;;;;;;;24.82;16.97;;;;;;;8.65;100.00;100885.05;1673456;83;22104;-75
2021/09/29 07:01:33;;;;;;;27.07;16.52;;;;;;;8.73;100.00;100886.41;1665016;84;20956;-75
2021/09/29 07:03:59;;;;;;;25.45;16.95;;;;;;;8.80;100.00;100885.59;1663885;84;21226;-75
2021/09/29 07:06:26;;;;;;;23.47;15.60;;;;;;;8.82;99.13;100893.00;1668541;84;21061;-71
2021/09/29 07:08:53;;;;;;;23.35;15.68;;;;;;;8.86;99.53;100892.73;1678257;84;21021;-71
2021/09/29 07:11:20;;;;;;;23.50;16.15;;;;;;;8.93;99.10;100882.33;1685714;84;22163;-74
2021/09/29 07:13:46;;;;;;;20.02;14.60;;;;;;;9.05;99.03;100893.03;1678876;84;21060;-73
2021/09/29 07:16:14;;;;;;;22.35;14.80;;;;;;;9.15;98.13;100895.23;1664146;83;21115;-73
2021/09/29 07:18:43;;;;;;;18.20;13.88;;;;;;;9.23;97.67;100893.31;1663943;84;20996;-75
2021/09/29 07:21:09;;;;;;;21.57;13.70;;;;;;;9.30;96.84;100894.92;1720737;82;20989;-74
2021/09/29 07:23:37;;;;;;;18.73;14.25;;;;;;;9.34;96.35;100902.33;1711591;83;21630;-83
2021/09/29 07:26:04;;;;;;;20.80;13.40;;;;;;;9.40;96.25;100903.97;1645831;84;21011;-84
2021/09/29 07:28:32;;;;;;;18.00;13.53;;;;;;;9.50;95.98;100904.52;1652023;84;21007;-84
2021/09/29 07:31:00;;;;;;;20.50;13.85;;;;;;;9.58;95.45;100908.07;1717204;82;21125;-84
2021/09/29 07:33:27;;;;;;;20.97;13.38;;;;;;;9.63;94.22;100908.06;1729709;82;21025;-77
2021/09/29 07:35:55;;;;;;;19.55;12.35;;;;;;;9.60;93.51;100904.50;1730034;82;21963;-83
2021/09/29 07:38:23;;;;;;;18.37;13.25;;;;;;;9.62;93.40;100898.20;1715753;82;21581;-76
2021/09/29 07:40:50;;;;;;;18.55;12.55;;;;;;;9.62;92.47;100897.38;1712561;82;20951;-74
2021/09/29 07:43:17;;;;;;;19.55;13.20;;;;;;;9.59;92.24;100905.05;1692580;83;21199;-74
2021/09/29 07:45:44;;;;;;;16.82;11.97;;;;;;;9.58;91.74;100902.59;1720151;82;21488;-75
2021/09/29 07:48:11;;;;;;;24.92;12.63;;;;;;;9.57;91.54;100903.69;1737776;81;21265;-82
2021/09/29 07:50:38;;;;;;;23.12;12.53;;;;;;;9.60;91.73;100903.95;1732097;82;20945;-81
2021/09/29 07:53:05;;;;;;;19.73;13.60;;;;;;;9.68;91.59;100909.98;1751887;81;21525;-76
2021/09/29 07:55:33;;;;;;;15.23;11.03;;;;;;;9.74;91.06;100908.32;1713108;82;21048;-70
2021/09/29 07:58:00;;;;;;;15.80;12.00;;;;;;;9.85;90.05;100916.77;1719798;82;20898;-75
2021/09/29 08:00:26;;;;;;;19.40;12.37;;;;;;;9.90;89.65;100916.77;1712569;82;21072;-75
2021/09/29 08:02:53;;;;;;;14.80;11.50;;;;;;;9.96;88.71;100918.95;1725851;82;21687;-77
2021/09/29 08:05:21;;;;;;;16.85;12.03;;;;;;;9.98;87.96;100915.92;1711095;83;21062;-77
2021/09/29 08:07:49;;;;;;;15.32;11.63;;;;;;;10.01;88.21;100916.19;1666021;83;21048;-67
2021/09/29 08:10:18;;;;;;;19.90;12.07;;;;;;;10.07;87.08;100917.82;1724193;81;21474;-69
2021/09/29 08:12:47;;;;;;;14.40;11.40;;;;;;;10.09;87.17;100925.77;1703265;83;21130;-71
2021/09/29 08:15:16;;;;;;;14.47;11.55;;;;;;;10.09;86.38;100921.66;1718712;82;21011;-68
2021/09/29 08:17:44;;;;;;;19.10;12.73;;;;;;;10.07;85.81;100923.86;1719499;82;21062;-68
2021/09/29 08:20:16;;;;;;;19.15;12.47;;;;;;;10.01;85.41;100923.59;1709619;82;21528;-69
2021/09/29 08:22:45;;;;;;;21.62;12.82;;;;;;;9.97;86.29;100923.88;1686908;83;20997;-69
2021/09/29 08:25:17;;;;;;;17.60;12.37;;;;;;;10.03;86.75;100922.77;1707397;83;21199;-69
2021/09/29 08:27:55;;;;;;;14.85;11.53;;;;;;;10.11;85.29;100920.27;1697014;82;20948;-72
2021/09/29 08:30:35;;;;;;;14.73;11.48;;;;;;;10.16;85.86;100916.70;1716931;82;21557;-68
2021/09/29 08:32:59;;;;;;;14.03;11.53;;;;;;;10.30;85.68;100916.95;1738490;82;20945;-69
2021/09/29 08:35:42;;;;;;;13.48;10.93;;;;;;;10.41;84.41;100923.47;1719056;82;21061;-69
2021/09/29 08:38:09;;;;;;;13.40;10.98;;;;;;;10.45;83.90;100917.69;1734959;81;21413;-69
2021/09/29 08:43:21;;;;;;;15.35;10.30;;;;;;;10.51;81.77;100912.98;1746082;81;21599;-70
2021/09/29 08:48:30;;;;;;;14.33;11.00;;;;;;;10.80;81.78;100911.19;1696765;84;21072;-70
2021/09/29 09:15:07;;;;;;;12.93;7.50;;;;;;;12.99;68.54;100913.78;1694470;82;21099;-72
2021/09/29 09:17:28;;;;;;;13.35;8.35;;;;;;;13.35;68.37;100902.19;1704873;82;21164;-68
2021/09/29 09:19:55;;;;;;;9.68;6.87;;;;;;;13.93;65.96;100901.69;1710401;82;21420;-67
2021/09/29 09:22:33;;;;;;;10.78;6.80;;;;;;;14.56;64.16;100902.36;1720844;81;21554;-68
2021/09/29 09:25:00;;;;;;;11.70;5.80;;;;;;;14.93;59.24;100897.92;1721149;81;21473;-69
2021/09/29 09:27:39;;;;;;;9.15;5.30;;;;;;;14.76;58.18;100904.67;1711760;82;20965;-69
2021/09/29 09:30:07;;;;;;;5.25;4.30;;;;;;;14.70;58.85;100902.59;1705087;82;21288;-68
2021/09/29 09:32:43;;;;;;;4.92;4.05;;;;;;;14.71;58.39;100893.17;1718029;82;21044;-70
2021/09/29 09:35:11;;;;;;;4.60;4.20;;;;;;;14.86;56.97;100892.00;1710721;82;21057;-69
2021/09/29 09:37:39;;;;;;;5.33;3.37;;;;;;;15.24;57.53;100896.60;1715781;82;21021;-68
2021/09/29 09:40:16;;;;;;;5.85;3.47;;;;;;;15.53;55.62;100891.44;1715639;82;21172;-69
2021/09/29 09:42:46;;;;;;;3.72;2.98;;;;;;;15.65;52.51;100882.55;1695509;83;21492;-70
2021/09/29 09:45:13;;;;;;;11.48;4.42;;;;;;;15.76;52.54;100892.22;1712170;81;20938;-71
2021/09/29 09:47:47;;;;;;;4.75;2.83;;;;;;;16.06;55.16;100886.98;1716683;81;21022;-69
2021/09/29 09:50:12;;;;;;;4.12;2.62;;;;;;;16.51;52.91;100893.95;1695158;83;20943;-70
2021/09/29 09:52:46;;;;;;;10.30;4.00;;;;;;;16.62;50.88;100890.87;1654099;85;20904;-69
2021/09/29 09:55:15;;;;;;;4.60;3.30;;;;;;;16.60;51.94;100890.38;1715085;82;21126;-69
2021/09/29 09:57:43;;;;;;;2.87;2.30;;;;;;;16.34;50.88;100893.09;1713948;83;20970;-69
2021/09/29 10:00:13;;;;;;;4.62;2.12;;;;;;;15.67;50.91;100891.36;1713939;82;21103;-68
2021/09/29 10:02:47;;;;;;;2.85;2.10;;;;;;;15.07;53.09;100897.28;1717931;83;20958;-68
2021/09/29 10:05:19;;;;;;;2.90;1.80;;;;;;;14.71;53.97;100893.17;1711257;82;21517;-68
2021/09/29 10:07:46;;;;;;;3.75;2.02;;;;;;;14.60;54.24;100892.31;1720999;81;21228;-68
2021/09/29 10:10:25;;;;;;;2.40;1.60;;;;;;;14.48;54.85;100892.84;1644078;86;21017;-69
2021/09/29 10:26:24;;;;;;;2.30;1.85;;;;;;;16.30;49.24;100883.22;1679782;84;21003;-69
2021/09/29 10:29:07;;;;;;;3.35;1.82;;;;;;;16.12;51.28;100887.09;1685477;81;21052;-70
2021/09/29 10:31:41;;;;;;;7.65;2.47;;;;;;;15.88;51.71;100886.66;1745835;81;20926;-71
2021/09/29 10:34:08;;;;;;;15.28;8.90;;;;;;;15.75;51.81;100885.05;1744487;80;21133;-69
2021/09/29 10:42:38;;;;;;;2.55;2.00;;;;;;;15.05;53.62;100876.03;1749298;80;21026;-69
2021/09/29 11:03:07;;;;;;;11.10;2.12;;;;;;;14.76;52.06;100873.70;1729034;82;20890;-69
2021/09/29 11:07:21;;;;;;;7.15;2.15;;;;;;;14.30;54.83;100871.69;1724446;82;20990;-68
2021/09/29 11:30:55;;;;;;;3.30;1.32;;;;;;;13.92;52.57;100865.55;1730380;80;21033;-68
2021/09/29 11:33:43;;;;;;;4.85;1.90;;;;;;;13.85;51.72;100861.28;1695420;83;20902;-69
2021/09/29 11:36:22;;;;;;;7.33;2.08;;;;;;;14.16;54.77;100859.27;1695695;83;20953;-70
2021/09/29 12:09:07;;;;;;;4.20;2.50;;;;;;;13.25;54.78;100866.55;1687142;83;39134;-67
2021/09/29 12:11:54;;;;;;;3.15;2.22;;;;;;;13.14;54.04;100869.44;1682901;84;20900;-69
2021/09/29 12:14:20;;;;;;;3.67;1.90;;;;;;;13.01;55.44;100872.13;1672750;84;21600;-70
2021/09/29 12:16:50;;;;;;;3.35;2.20;;;;;;;12.98;56.12;100870.80;1666759;84;21050;-70
2021/09/29 12:19:33;;;;;;;3.35;2.25;;;;;;;13.02;56.28;100873.77;1684182;82;21026;-69
2021/09/29 12:21:58;;;;;;;2.85;2.17;;;;;;;13.04;55.94;100875.11;1696280;83;21152;-69
2021/09/29 12:24:32;;;;;;;4.30;2.35;;;;;;;12.98;55.58;100868.04;1692793;83;21035;-70
2021/09/29 12:27:00;;;;;;;4.72;2.35;;;;;;;12.88;55.21;100871.77;1715653;81;21002;-67
2021/09/29 12:29:33;;;;;;;6.30;2.60;;;;;;;12.77;56.21;100874.97;1714467;81;20968;-67
2021/09/29 12:32:31;;;;;;;3.62;2.65;;;;;;;12.75;55.84;100873.08;1709936;82;20962;-69
2021/09/29 12:37:42;;;;;;;3.75;3.22;;;;;;;12.82;56.46;100871.58;1699877;83;20899;-68
2021/09/29 12:40:11;;;;;;;9.80;3.35;;;;;;;13.23;54.99;100870.98;1720983;83;20962;-69
2021/09/29 12:42:39;;;;;;;9.40;3.83;;;;;;;13.48;53.84;100864.18;1688674;84;21030;-69
2021/09/29 12:45:09;;;;;;;4.90;3.17;;;;;;;13.54;53.15;100864.34;1697099;83;21058;-70
2021/09/29 12:47:41;;;;;;;5.60;3.42;;;;;;;13.48;53.18;100861.42;1718055;83;21142;-70
2021/09/29 12:50:15;;;;;;;6.37;3.27;;;;;;;13.38;54.27;100862.41;1708414;81;21120;-67
2021/09/29 12:52:39;;;;;;;6.85;3.45;;;;;;;13.24;54.22;100863.52;1733597;81;21014;-68
2021/09/29 12:55:09;;;;;;;5.28;3.62;;;;;;;13.08;55.67;100862.92;1719177;81;21529;-69
2021/09/29 12:57:35;;;;;;;5.42;3.22;;;;;;;12.97;56.27;100867.78;1717689;82;21537;-68
2021/09/29 13:00:04;;;;;;;5.62;3.27;;;;;;;12.79;55.94;100869.98;1721773;83;21121;-71
2021/09/29 13:02:31;;;;;;;3.85;3.00;;;;;;;12.60;57.00;100870.56;1724171;82;21006;-65
2021/09/29 13:04:57;;;;;;;6.87;3.33;;;;;;;12.41;58.67;100869.17;1728742;83;21509;-65
2021/09/29 13:07:25;;;;;;;10.35;3.58;;;;;;;12.27;58.89;100871.82;1730435;83;20970;-65
2021/09/29 13:09:54;;;;;;;6.55;3.22;;;;;;;12.11;59.61;100875.91;1725699;83;20934;-67
2021/09/29 13:12:20;;;;;;;5.40;3.58;;;;;;;11.92;60.15;100873.09;1723026;82;23300;-67
2021/09/29 13:14:46;;;;;;;7.37;3.52;;;;;;;11.77;61.15;100878.20;1716012;82;22406;-66
2021/09/29 13:17:14;;;;;;;6.12;4.28;;;;;;;11.72;62.37;100872.72;1721928;82;21456;-70
2021/09/29 13:19:51;;;;;;;5.30;4.20;;;;;;;11.69;63.71;100870.55;1718531;82;21018;-67
2021/09/29 13:22:23;;;;;;;10.72;3.83;;;;;;;11.68;64.02;100871.66;1737894;82;20902;-67
2021/09/29 13:36:32;;;;;;;12.13;5.67;;;;;;;11.55;65.04;100857.25;1721072;81;21050;-69